createdAt,value
2018-07-17T00:00:57.895Z,91.10
2018-07-17T00:03:27.268Z,91.10
2018-07-17T00:05:56.762Z,91.10
2018-07-17T00:08:26.060Z,91.00
2018-07-17T00:10:55.418Z,90.90
2018-07-17T00:13:24.726Z,91.00
2018-07-17T00:15:54.103Z,91.60
2018-07-17T00:18:23.430Z,92.10
2018-07-17T00:20:52.739Z,92.20
2018-07-17T00:28:19.513Z,92.90
2018-07-17T00:33:17.528Z,93.20
2018-07-17T00:35:46.851Z,93.40
2018-07-17T00:38:16.168Z,93.60
2018-07-17T00:40:45.519Z,93.60
2018-07-17T00:43:14.816Z,93.60
2018-07-17T00:45:44.140Z,93.70
2018-07-17T00:48:13.459Z,93.80
2018-07-17T00:50:42.799Z,93.90
2018-07-17T00:55:41.086Z,93.80
2018-07-17T00:58:10.398Z,93.90
2018-07-17T01:03:18.525Z,94.00
2018-07-17T01:05:53.425Z,94.00
2018-07-17T01:08:27.840Z,94.10
2018-07-17T01:11:02.155Z,94.10
2018-07-17T01:13:36.574Z,94.00
2018-07-17T01:16:06.020Z,94.10
2018-07-17T01:18:35.296Z,94.10
2018-07-17T01:21:04.563Z,94.00
2018-07-17T01:23:33.929Z,94.10
2018-07-17T01:26:03.276Z,94.30
2018-07-17T01:28:32.535Z,94.20
2018-07-17T01:31:01.847Z,94.20
2018-07-17T01:33:31.287Z,94.20
2018-07-17T01:36:00.665Z,94.30
2018-07-17T01:38:30.250Z,93.90
2018-07-17T01:40:59.458Z,94.10
2018-07-17T01:43:28.749Z,94.20
2018-07-17T01:45:58.096Z,94.30
2018-07-17T01:48:27.401Z,94.20
2018-07-17T01:50:56.711Z,94.50
2018-07-17T01:53:26.062Z,94.60
2018-07-17T01:55:55.368Z,94.50
2018-07-17T01:58:24.636Z,94.40
2018-07-17T02:00:53.946Z,94.30
2018-07-17T02:03:23.250Z,94.20
2018-07-17T02:05:52.551Z,94.20
2018-07-17T02:08:21.859Z,94.30
2018-07-17T02:10:51.321Z,94.20
2018-07-17T02:15:49.368Z,94.20
2018-07-17T02:18:18.604Z,94.20
2018-07-17T02:20:47.916Z,94.40
2018-07-17T02:25:46.016Z,94.40
2018-07-17T02:30:44.095Z,94.70
2018-07-17T02:33:13.381Z,94.70
2018-07-17T02:35:42.674Z,94.70
2018-07-17T02:38:12.012Z,94.70
2018-07-17T02:40:41.326Z,94.80
2018-07-17T02:43:10.677Z,94.80
2018-07-17T02:45:39.983Z,94.90
2018-07-17T02:48:09.292Z,94.90
2018-07-17T02:50:38.572Z,94.90
2018-07-17T02:53:07.867Z,94.90
2018-07-17T02:55:37.504Z,94.90
2018-07-17T02:58:06.930Z,94.90
2018-07-17T03:00:36.404Z,95.00
2018-07-17T03:05:34.494Z,94.90
2018-07-17T03:10:32.564Z,94.60
2018-07-17T03:13:01.820Z,94.10
2018-07-17T03:15:31.212Z,94.00
2018-07-17T03:18:00.539Z,93.90
2018-07-17T03:20:29.857Z,93.70
2018-07-17T03:22:59.184Z,92.60
2018-07-17T03:27:57.321Z,92.70
2018-07-17T03:30:26.684Z,92.20
2018-07-17T03:32:56.004Z,91.90
2018-07-17T03:35:25.304Z,92.20
2018-07-17T03:37:54.583Z,91.80
2018-07-17T03:40:23.900Z,91.60
2018-07-17T03:42:53.287Z,91.70
2018-07-17T03:45:22.635Z,91.60
2018-07-17T03:47:52.876Z,91.50
2018-07-17T03:50:22.161Z,91.30
2018-07-17T03:52:51.424Z,91.40
2018-07-17T03:55:20.708Z,91.40
2018-07-17T03:57:50.025Z,91.30
2018-07-17T04:00:19.326Z,91.30
2018-07-17T04:02:48.667Z,91.50
2018-07-17T04:05:18.135Z,91.60
2018-07-17T04:07:47.492Z,91.70
2018-07-17T04:10:16.887Z,91.70
2018-07-17T04:12:46.240Z,91.60
2018-07-17T04:15:15.573Z,91.70
2018-07-17T04:17:44.879Z,91.60
2018-07-17T04:20:14.226Z,91.80
2018-07-17T04:22:43.506Z,91.70
2018-07-17T04:27:42.808Z,91.60
2018-07-17T04:30:12.120Z,91.30
2018-07-17T04:32:41.371Z,91.20
2018-07-17T04:35:10.691Z,90.80
2018-07-17T04:37:39.969Z,90.80
2018-07-17T04:40:09.368Z,90.80
2018-07-17T04:42:38.693Z,91.30
2018-07-17T04:45:08.076Z,90.50
2018-07-17T04:47:37.364Z,90.80
2018-07-17T04:50:06.721Z,90.20
2018-07-17T04:52:35.974Z,90.00
2018-07-17T04:55:05.241Z,89.60
2018-07-17T04:57:34.569Z,90.20
2018-07-17T05:00:03.941Z,90.30
2018-07-17T05:02:33.203Z,90.50
2018-07-17T05:05:02.517Z,90.60
2018-07-17T05:07:31.826Z,90.80
2018-07-17T05:12:29.945Z,90.30
2018-07-17T05:14:59.224Z,90.50
2018-07-17T05:17:28.559Z,90.50
2018-07-17T05:19:57.874Z,90.60
2018-07-17T05:22:27.193Z,90.60
2018-07-17T05:24:56.559Z,90.80
2018-07-17T05:27:25.862Z,91.80
2018-07-17T05:29:55.127Z,91.90
2018-07-17T05:34:53.417Z,92.70
2018-07-17T05:37:23.283Z,92.60
2018-07-17T05:39:52.533Z,92.40
2018-07-17T05:47:19.485Z,92.80
2018-07-17T05:49:48.752Z,93.00
2018-07-17T05:52:18.072Z,93.10
2018-07-17T05:54:47.399Z,93.10
2018-07-17T05:59:45.668Z,92.70
2018-07-17T06:02:14.961Z,92.60
2018-07-17T06:04:44.360Z,92.30
2018-07-17T06:07:13.636Z,92.30
2018-07-17T06:09:43.200Z,92.40
2018-07-17T06:12:12.522Z,92.30
2018-07-17T06:14:41.836Z,92.10
2018-07-17T06:17:11.344Z,92.20
2018-07-17T06:19:40.618Z,92.20
2018-07-17T06:22:10.036Z,92.20
2018-07-17T06:24:39.320Z,91.90
2018-07-17T06:27:08.697Z,92.00
2018-07-17T06:29:37.978Z,92.10
2018-07-17T06:32:07.291Z,91.90
2018-07-17T06:34:36.589Z,91.70
2018-07-17T06:37:06.044Z,91.20
2018-07-17T06:39:35.450Z,90.90
2018-07-17T06:42:04.897Z,88.00
2018-07-17T06:44:36.438Z,87.30
2018-07-17T06:47:05.991Z,86.20
2018-07-17T06:49:35.439Z,84.10
2018-07-17T06:52:04.888Z,76.40
2018-07-17T06:57:03.146Z,76.10
2018-07-17T06:59:32.555Z,77.70
2018-07-17T07:02:01.963Z,75.50
2018-07-17T07:04:31.404Z,79.20
2018-07-17T07:07:00.810Z,82.60
2018-07-17T07:09:30.258Z,85.80
2018-07-17T07:11:59.730Z,87.60
2018-07-17T07:14:29.132Z,88.50
2018-07-17T07:16:58.491Z,89.70
2018-07-17T07:19:27.948Z,90.10
2018-07-17T07:21:57.419Z,90.40
2018-07-17T07:24:26.799Z,90.40
2018-07-17T07:29:25.111Z,90.60
2018-07-17T07:36:52.285Z,90.50
2018-07-17T07:39:21.756Z,91.00
2018-07-17T07:41:51.176Z,91.70
2018-07-17T07:44:20.557Z,91.80
2018-07-17T07:46:49.957Z,91.80
2018-07-17T07:49:19.463Z,91.70
2018-07-17T07:51:48.833Z,91.80
2018-07-17T07:54:18.300Z,91.70
2018-07-17T07:59:16.424Z,91.60
2018-07-17T08:01:45.822Z,91.20
2018-07-17T08:04:15.212Z,90.70
2018-07-17T08:06:44.647Z,90.20
2018-07-17T08:09:14.010Z,90.00
2018-07-17T08:14:12.365Z,88.40
2018-07-17T08:16:41.850Z,87.70
2018-07-17T08:19:11.241Z,86.30
2018-07-17T08:21:40.687Z,85.70
2018-07-17T08:24:10.059Z,84.30
2018-07-17T08:26:39.514Z,84.20
2018-07-17T08:34:07.777Z,78.20
2018-07-17T08:36:37.268Z,78.60
2018-07-17T08:39:09.038Z,72.10
2018-07-17T08:41:38.545Z,71.50
2018-07-17T08:44:08.363Z,76.20
2018-07-17T08:46:38.025Z,75.20
2018-07-17T08:49:07.495Z,75.70
2018-07-17T08:51:36.948Z,72.60
2018-07-17T08:54:06.771Z,72.60
2018-07-17T08:56:36.216Z,66.50
2018-07-17T08:59:05.606Z,66.10
2018-07-17T09:01:35.003Z,64.90
2018-07-17T09:04:04.427Z,66.60
2018-07-17T09:06:33.874Z,64.90
2018-07-17T09:09:03.406Z,63.90
2018-07-17T09:11:32.780Z,64.80
2018-07-17T09:14:02.170Z,62.10
2018-07-17T09:16:31.632Z,61.40
2018-07-17T09:19:01.069Z,60.30
2018-07-17T09:23:59.330Z,64.50
2018-07-17T09:26:28.808Z,62.70
2018-07-17T09:28:58.193Z,61.10
2018-07-17T09:31:27.566Z,62.60
2018-07-17T09:36:26.811Z,60.70
2018-07-17T09:38:56.230Z,57.40
2018-07-17T09:41:25.608Z,61.10
2018-07-17T09:43:54.987Z,64.60
2018-07-17T09:48:53.181Z,68.00
2018-07-17T09:51:22.582Z,67.70
2018-07-17T09:53:51.939Z,68.60
2018-07-17T09:56:21.328Z,68.50
2018-07-17T09:58:51.200Z,68.70
2018-07-17T10:01:25.745Z,68.40
2018-07-17T10:03:55.172Z,67.50
2018-07-17T10:06:24.733Z,67.50
2018-07-17T10:08:54.188Z,65.30
2018-07-17T10:11:23.699Z,62.90
2018-07-17T10:13:53.189Z,59.00
2018-07-17T10:16:22.693Z,58.50
2018-07-17T10:18:52.099Z,57.00
2018-07-17T10:21:21.607Z,56.90
2018-07-17T10:23:51.111Z,57.90
2018-07-17T10:26:20.610Z,63.10
2018-07-17T10:28:50.032Z,65.90
2018-07-17T10:31:19.440Z,66.70
2018-07-17T10:33:48.967Z,67.10
2018-07-17T10:38:47.244Z,67.20
2018-07-17T10:41:16.687Z,67.10
2018-07-17T10:43:46.035Z,66.90
2018-07-17T10:46:15.464Z,67.10
2018-07-17T10:48:44.914Z,67.10
2018-07-17T10:51:14.466Z,67.10
2018-07-17T10:53:43.955Z,67.60
2018-07-17T10:56:13.386Z,68.00
2018-07-17T10:58:42.877Z,67.10
2018-07-17T11:01:12.378Z,67.10
2018-07-17T11:03:41.811Z,66.10
2018-07-17T11:06:11.333Z,66.00
2018-07-17T11:08:40.836Z,66.70
2018-07-17T11:11:10.325Z,66.60
2018-07-17T11:13:42.003Z,68.60
2018-07-17T11:16:11.490Z,69.50
2018-07-17T11:18:44.379Z,70.00
2018-07-17T11:21:17.414Z,69.90
2018-07-17T11:23:49.080Z,70.70
2018-07-17T11:26:18.528Z,71.20
2018-07-17T11:28:47.937Z,72.10
2018-07-17T11:31:17.309Z,72.10
2018-07-17T11:33:46.752Z,71.60
2018-07-17T11:36:16.139Z,70.20
2018-07-17T11:38:45.797Z,67.80
2018-07-17T11:41:15.239Z,65.00
2018-07-17T11:43:44.628Z,64.20
2018-07-17T11:46:14.138Z,64.80
2018-07-17T11:48:43.544Z,67.40
2018-07-17T11:51:12.984Z,68.60
2018-07-17T11:53:42.379Z,70.10
2018-07-17T11:56:11.782Z,70.50
2018-07-17T11:58:41.144Z,70.70
2018-07-17T12:01:10.631Z,69.80
2018-07-17T12:03:40.009Z,70.10
2018-07-17T12:06:11.928Z,70.10
2018-07-17T12:08:42.821Z,68.90
2018-07-17T12:11:12.288Z,68.20
2018-07-17T12:13:42.070Z,67.70
2018-07-17T12:16:11.651Z,66.20
2018-07-17T12:18:41.734Z,63.00
2018-07-17T12:21:11.273Z,63.50
2018-07-17T12:23:40.694Z,63.80
2018-07-17T12:28:39.015Z,56.60
2018-07-17T12:31:08.510Z,56.20
2018-07-17T12:33:37.937Z,57.20
2018-07-17T12:36:08.523Z,55.50
2018-07-17T12:38:38.464Z,55.50
2018-07-17T12:41:07.996Z,50.20
2018-07-17T12:43:37.493Z,52.30
2018-07-17T12:46:07.084Z,53.50
2018-07-17T12:48:36.653Z,47.40
2018-07-17T12:51:06.271Z,45.80
2018-07-17T12:53:35.691Z,49.00
2018-07-17T12:56:05.289Z,47.20
2018-07-17T12:58:34.820Z,48.20
2018-07-17T13:01:04.429Z,47.70
2018-07-17T13:03:33.879Z,48.40
2018-07-17T13:06:03.343Z,44.50
2018-07-17T13:08:32.821Z,47.00
2018-07-17T13:13:31.181Z,46.90
2018-07-17T13:16:00.691Z,46.20
2018-07-17T13:18:31.436Z,46.00
2018-07-17T13:21:00.905Z,47.70
2018-07-17T13:23:30.315Z,46.70
2018-07-17T13:25:59.790Z,44.50
2018-07-17T13:28:29.544Z,44.70
2018-07-17T13:30:59.104Z,44.90
2018-07-17T13:33:28.552Z,45.70
2018-07-17T13:35:57.927Z,40.60
2018-07-17T13:38:27.346Z,43.20
2018-07-17T13:40:56.740Z,44.20
2018-07-17T13:43:26.155Z,44.70
2018-07-17T13:45:55.777Z,43.50
2018-07-17T13:48:25.277Z,43.70
2018-07-17T13:50:54.814Z,44.70
2018-07-17T13:53:24.288Z,44.70
2018-07-17T13:55:53.752Z,41.60
2018-07-17T13:58:23.268Z,42.00
2018-07-17T14:00:53.102Z,44.20
2018-07-17T14:03:25.017Z,42.40
2018-07-17T14:05:54.518Z,41.90
2018-07-17T14:08:24.067Z,41.90
2018-07-17T14:10:53.647Z,43.30
2018-07-17T14:13:23.794Z,46.30
2018-07-17T14:15:53.255Z,47.80
2018-07-17T14:18:22.789Z,44.50
2018-07-17T14:20:52.558Z,45.70
2018-07-17T14:23:22.093Z,45.10
2018-07-17T14:25:51.605Z,41.80
2018-07-17T14:28:21.476Z,43.40
2018-07-17T14:30:51.123Z,41.30
2018-07-17T14:33:21.844Z,39.00
2018-07-17T14:35:51.329Z,40.00
2018-07-17T14:38:20.769Z,38.80
2018-07-17T14:40:50.330Z,38.00
2018-07-17T14:45:48.552Z,37.60
2018-07-17T14:48:18.246Z,37.00
2018-07-17T14:50:47.710Z,36.40
2018-07-17T14:53:17.191Z,35.90
2018-07-17T14:55:46.751Z,37.50
2018-07-17T14:58:16.200Z,36.10
2018-07-17T15:00:45.591Z,36.20
2018-07-17T15:03:14.994Z,36.90
2018-07-17T15:05:44.519Z,36.10
2018-07-17T15:08:13.917Z,36.50
2018-07-17T15:10:43.311Z,37.00
2018-07-17T15:13:12.715Z,37.10
2018-07-17T15:15:42.141Z,36.20
2018-07-17T15:18:11.546Z,37.40
2018-07-17T15:20:40.958Z,33.50
2018-07-17T15:25:39.347Z,34.90
2018-07-17T15:28:09.015Z,32.70
2018-07-17T15:30:38.436Z,35.30
2018-07-17T15:33:08.818Z,32.90
2018-07-17T15:35:41.478Z,32.20
2018-07-17T15:38:10.864Z,33.20
2018-07-17T15:40:40.508Z,32.40
2018-07-17T15:43:09.933Z,33.10
2018-07-17T15:45:39.399Z,34.50
2018-07-17T15:50:38.067Z,32.60
2018-07-17T15:53:07.540Z,33.00
2018-07-17T15:55:36.942Z,32.30
2018-07-17T15:58:06.399Z,34.10
2018-07-17T16:00:35.816Z,33.10
2018-07-17T16:03:05.483Z,33.10
2018-07-17T16:05:34.964Z,33.20
2018-07-17T16:08:04.488Z,32.80
2018-07-17T16:10:33.998Z,33.10
2018-07-17T16:13:03.441Z,32.70
2018-07-17T16:15:32.879Z,33.40
2018-07-17T16:18:02.397Z,33.70
2018-07-17T16:20:31.848Z,33.10
2018-07-17T16:25:30.240Z,33.90
2018-07-17T16:30:28.748Z,34.60
2018-07-17T16:32:58.224Z,35.50
2018-07-17T16:35:27.603Z,34.70
2018-07-17T16:37:57.055Z,35.20
2018-07-17T16:40:26.468Z,33.70
2018-07-17T16:42:55.877Z,33.20
2018-07-17T16:45:25.323Z,34.20
2018-07-17T16:47:54.753Z,34.00
2018-07-17T16:50:24.110Z,34.60
2018-07-17T16:52:53.470Z,36.10
2018-07-17T16:57:51.677Z,34.90
2018-07-17T17:00:21.125Z,34.30
2018-07-17T17:02:50.612Z,36.20
2018-07-17T17:05:20.086Z,38.50
2018-07-17T17:07:49.479Z,40.00
2018-07-17T17:10:18.850Z,39.30
2018-07-17T17:12:48.279Z,40.00
2018-07-17T17:17:46.576Z,41.50
2018-07-17T17:20:16.033Z,41.60
2018-07-17T17:22:45.412Z,42.50
2018-07-17T17:25:14.792Z,43.90
2018-07-17T17:27:44.234Z,42.30
2018-07-17T17:30:13.726Z,43.60
2018-07-17T17:32:43.188Z,44.60
2018-07-17T17:35:12.573Z,45.40
2018-07-17T17:37:42.066Z,45.90
2018-07-17T17:40:11.516Z,45.20
2018-07-17T17:42:40.893Z,44.20
2018-07-17T17:47:39.423Z,44.50
2018-07-17T17:50:08.815Z,46.50
2018-07-17T17:52:38.204Z,47.00
2018-07-17T17:57:36.571Z,43.50
2018-07-17T18:00:06.660Z,39.50
2018-07-17T18:02:36.147Z,41.40
2018-07-17T18:05:05.883Z,40.90
2018-07-17T18:07:35.361Z,39.00
2018-07-17T18:10:05.136Z,40.20
2018-07-17T18:12:34.616Z,39.80
2018-07-17T18:15:04.178Z,43.50
2018-07-17T18:17:33.594Z,40.10
2018-07-17T18:20:03.051Z,40.50
2018-07-17T18:22:32.507Z,40.40
2018-07-17T18:25:01.929Z,42.40
2018-07-17T18:27:31.282Z,44.50
2018-07-17T18:30:00.749Z,43.00
2018-07-17T18:32:30.132Z,44.90
2018-07-17T18:34:59.698Z,44.00
2018-07-17T18:37:29.199Z,43.70
2018-07-17T18:39:58.710Z,40.50
2018-07-17T18:42:28.309Z,43.30
2018-07-17T18:44:57.682Z,44.00
2018-07-17T18:47:27.214Z,45.40
2018-07-17T18:50:12.311Z,44.20
2018-07-17T18:52:26.587Z,44.30
2018-07-17T18:54:55.933Z,45.50
2018-07-17T18:57:25.451Z,44.00
2018-07-17T18:59:54.846Z,43.20
2018-07-17T19:02:24.239Z,45.00
2018-07-17T19:04:53.617Z,45.40
2018-07-17T19:07:23.071Z,42.40
2018-07-17T19:09:52.474Z,45.40
2018-07-17T19:12:22.231Z,46.50
2018-07-17T19:14:51.619Z,46.20
2018-07-17T19:17:21.042Z,48.00
2018-07-17T19:19:50.432Z,46.80
2018-07-17T19:22:20.937Z,47.60
2018-07-17T19:24:50.390Z,47.10
2018-07-17T19:29:49.009Z,47.20
2018-07-17T19:32:18.549Z,48.80
2018-07-17T19:34:48.030Z,50.10
2018-07-17T19:37:17.557Z,48.60
2018-07-17T19:39:46.976Z,49.70
2018-07-17T19:42:16.563Z,49.40
2018-07-17T19:44:45.939Z,50.10
2018-07-17T19:47:15.353Z,50.90
2018-07-17T19:49:44.717Z,50.60
2018-07-17T19:54:42.995Z,51.80
2018-07-17T19:57:12.639Z,52.10
2018-07-17T19:59:42.166Z,50.80
2018-07-17T20:02:11.718Z,51.80
2018-07-17T20:04:41.060Z,52.50
2018-07-17T20:07:10.535Z,51.00
2018-07-17T20:12:09.141Z,49.40
2018-07-17T20:19:36.274Z,49.70
2018-07-17T20:22:05.805Z,49.20
2018-07-17T20:24:35.230Z,44.30
2018-07-17T20:29:33.471Z,48.50
2018-07-17T20:32:02.956Z,49.10
2018-07-17T20:34:32.461Z,47.00
2018-07-17T20:37:01.913Z,48.50
2018-07-17T20:39:31.448Z,49.00
2018-07-17T20:42:00.862Z,49.90
2018-07-17T20:44:30.319Z,48.20
2018-07-17T20:46:59.782Z,50.30
2018-07-17T20:49:29.289Z,50.90
2018-07-17T20:51:58.773Z,51.20
2018-07-17T20:54:28.563Z,51.20
2018-07-17T20:56:58.343Z,50.20
2018-07-17T20:59:41.530Z,49.50
2018-07-17T21:02:11.350Z,50.60
2018-07-17T21:04:40.862Z,47.60
2018-07-17T21:07:10.353Z,49.20
2018-07-17T21:09:39.809Z,48.50
2018-07-17T21:12:09.228Z,50.80
2018-07-17T21:14:38.677Z,50.30
2018-07-17T21:17:08.088Z,46.30
2018-07-17T21:19:37.546Z,48.30
2018-07-17T21:22:07.509Z,50.90
2018-07-17T21:24:36.985Z,50.90
2018-07-17T21:27:06.455Z,51.40
2018-07-17T21:29:35.837Z,51.70
2018-07-17T21:32:05.220Z,52.10
2018-07-17T21:34:34.827Z,51.50
2018-07-17T21:37:04.285Z,50.50
2018-07-17T21:39:33.710Z,49.10
2018-07-17T21:42:03.239Z,49.40
2018-07-17T21:44:32.606Z,49.40
2018-07-17T21:47:02.406Z,43.20
2018-07-17T21:52:01.167Z,49.00
2018-07-17T21:54:30.632Z,49.20
2018-07-17T21:57:00.035Z,48.80
2018-07-17T21:59:29.417Z,49.70
2018-07-17T22:01:58.801Z,50.60
2018-07-17T22:04:28.179Z,49.60
2018-07-17T22:06:57.602Z,46.90
2018-07-17T22:09:26.952Z,48.60
2018-07-17T22:11:56.354Z,46.20
2018-07-17T22:14:25.744Z,44.00
2018-07-17T22:16:55.148Z,46.00
2018-07-17T22:19:24.616Z,48.10
2018-07-17T22:21:54.516Z,48.40
2018-07-17T22:24:23.963Z,49.30
2018-07-17T22:26:53.294Z,48.60
2018-07-17T22:29:22.709Z,48.60
2018-07-17T22:31:52.189Z,49.20
2018-07-17T22:34:21.648Z,49.30
2018-07-17T22:36:51.106Z,49.00
2018-07-17T22:39:20.534Z,49.40
2018-07-17T22:41:49.953Z,47.80
2018-07-17T22:44:19.359Z,48.10
2018-07-17T22:46:48.748Z,46.20
2018-07-17T22:49:20.995Z,48.00
2018-07-17T22:51:51.996Z,47.40
2018-07-17T22:54:21.320Z,46.30
2018-07-17T22:56:50.722Z,47.00
2018-07-17T22:59:20.442Z,48.80
2018-07-17T23:01:49.869Z,48.30
2018-07-17T23:04:19.966Z,49.10
2018-07-17T23:06:49.491Z,50.20
2018-07-17T23:09:19.623Z,49.70
2018-07-17T23:11:49.034Z,48.80
2018-07-17T23:14:18.443Z,48.10
2018-07-17T23:16:47.813Z,47.60
2018-07-17T23:19:17.294Z,44.50
2018-07-17T23:21:46.698Z,41.70
2018-07-17T23:24:16.092Z,47.20
2018-07-17T23:26:45.593Z,41.10
2018-07-17T23:29:15.061Z,46.70
2018-07-17T23:31:44.497Z,42.60
2018-07-17T23:34:13.932Z,43.80
2018-07-17T23:36:43.303Z,41.70
2018-07-17T23:39:12.769Z,39.10
2018-07-17T23:41:42.490Z,39.20
2018-07-17T23:46:40.767Z,42.60
2018-07-17T23:49:14.494Z,45.10
2018-07-17T23:51:43.924Z,46.60
2018-07-17T23:54:13.324Z,45.20
2018-07-17T23:56:42.756Z,44.20
2018-07-17T23:59:12.211Z,45.60
